createdAt,value
2023-05-14T00:02:10.841Z,4.60
2023-05-14T00:04:39.093Z,5.70
2023-05-14T00:07:07.282Z,4.80
2023-05-14T00:09:36.296Z,5.00
2023-05-14T00:12:04.844Z,5.20
2023-05-14T00:14:33.015Z,5.30
2023-05-14T00:17:01.626Z,6.30
2023-05-14T00:19:29.897Z,5.60
2023-05-14T00:21:58.282Z,4.70
2023-05-14T00:24:26.641Z,5.10
2023-05-14T00:26:54.711Z,5.10
2023-05-14T00:29:22.850Z,5.20
2023-05-14T00:31:51.427Z,5.90
2023-05-14T00:34:19.660Z,5.80
2023-05-14T00:36:47.947Z,5.90
2023-05-14T00:39:16.115Z,6.30
2023-05-14T00:41:44.284Z,6.30
2023-05-14T00:44:13.253Z,5.40
2023-05-14T00:46:41.468Z,6.50
2023-05-14T00:49:09.840Z,6.20
2023-05-14T00:51:40.081Z,6.00
2023-05-14T00:54:10.731Z,6.30
2023-05-14T00:56:39.909Z,6.40
2023-05-14T00:59:08.599Z,7.10
2023-05-14T01:01:38.038Z,6.40
2023-05-14T01:04:07.787Z,5.70
2023-05-14T01:06:58.524Z,6.10
2023-05-14T01:09:29.433Z,6.50
2023-05-14T01:12:16.133Z,6.00
2023-05-14T01:15:02.185Z,5.40
2023-05-14T01:17:33.479Z,5.60
2023-05-14T01:20:02.758Z,5.30
2023-05-14T01:22:30.896Z,6.00
2023-05-14T01:24:59.388Z,5.80
2023-05-14T01:27:46.495Z,5.00
2023-05-14T01:30:33.321Z,5.10
2023-05-14T01:33:06.705Z,5.90
2023-05-14T01:35:35.331Z,5.20
2023-05-14T01:38:09.207Z,4.10
2023-05-14T01:40:38.409Z,4.00
2023-05-14T01:43:06.745Z,5.60
2023-05-14T01:45:38.543Z,6.50
2023-05-14T01:48:06.758Z,4.90
2023-05-14T01:50:36.160Z,4.60
2023-05-14T01:53:04.698Z,4.80
2023-05-14T01:55:33.905Z,5.00
2023-05-14T01:58:02.394Z,4.40
2023-05-14T02:00:30.758Z,4.70
2023-05-14T02:03:00.281Z,5.00
2023-05-14T02:05:29.038Z,5.30
2023-05-14T02:07:57.265Z,4.60
2023-05-14T02:10:25.923Z,4.10
2023-05-14T02:12:54.351Z,3.80
2023-05-14T02:15:22.619Z,3.60
2023-05-14T02:17:50.989Z,4.00
2023-05-14T02:20:19.380Z,4.00
2023-05-14T02:22:47.610Z,5.80
2023-05-14T02:25:16.023Z,5.60
2023-05-14T02:27:45.359Z,5.50
2023-05-14T02:30:14.005Z,7.20
2023-05-14T02:32:42.592Z,6.40
2023-05-14T02:35:11.063Z,6.80
2023-05-14T02:37:39.395Z,7.90
2023-05-14T02:40:08.698Z,6.40
2023-05-14T02:42:37.222Z,7.10
2023-05-14T02:45:06.486Z,7.10
2023-05-14T02:47:37.563Z,7.20
2023-05-14T02:50:07.204Z,7.40
2023-05-14T02:52:35.689Z,8.00
2023-05-14T02:55:04.662Z,7.80
2023-05-14T02:57:33.644Z,7.40
2023-05-14T03:00:02.063Z,7.60
2023-05-14T03:02:30.726Z,6.20
2023-05-14T03:04:59.549Z,8.40
2023-05-14T03:07:28.478Z,7.60
2023-05-14T03:09:56.970Z,7.00
2023-05-14T03:12:25.267Z,7.00
2023-05-14T03:14:53.383Z,7.80
2023-05-14T03:17:21.706Z,8.40
2023-05-14T03:19:50.294Z,8.20
2023-05-14T03:22:18.814Z,8.30
2023-05-14T03:24:48.364Z,9.40
2023-05-14T03:27:16.621Z,8.00
2023-05-14T03:29:45.374Z,7.90
2023-05-14T03:32:13.608Z,8.10
2023-05-14T03:34:42.893Z,8.40
2023-05-14T03:37:11.501Z,9.70
2023-05-14T03:39:40.125Z,8.70
2023-05-14T03:42:08.513Z,10.40
2023-05-14T03:44:36.928Z,9.40
2023-05-14T03:47:05.553Z,10.80
2023-05-14T03:49:34.392Z,10.50
2023-05-14T03:52:02.635Z,10.40
2023-05-14T03:54:31.410Z,10.40
2023-05-14T03:57:02.119Z,10.80
2023-05-14T03:59:30.612Z,9.50
2023-05-14T04:01:58.949Z,9.50
2023-05-14T04:04:27.311Z,10.50
2023-05-14T04:06:55.563Z,10.00
2023-05-14T04:09:23.719Z,9.50
2023-05-14T04:11:52.706Z,9.70
2023-05-14T04:14:21.252Z,9.70
2023-05-14T04:16:49.637Z,10.10
2023-05-14T04:19:18.504Z,8.70
2023-05-14T04:21:47.273Z,10.80
2023-05-14T04:24:17.312Z,10.70
2023-05-14T04:26:46.135Z,9.70
2023-05-14T04:29:14.485Z,9.00
2023-05-14T04:31:43.385Z,8.90
2023-05-14T04:34:11.786Z,8.30
2023-05-14T04:36:40.763Z,7.10
2023-05-14T04:39:12.817Z,6.90
2023-05-14T04:41:41.236Z,5.90
2023-05-14T04:44:09.804Z,6.40
2023-05-14T04:46:38.535Z,6.40
2023-05-14T04:49:06.777Z,6.20
2023-05-14T04:51:35.019Z,6.60
2023-05-14T04:54:03.290Z,6.50
2023-05-14T04:56:32.192Z,5.40
2023-05-14T04:59:00.406Z,5.20
2023-05-14T05:01:29.115Z,6.10
2023-05-14T05:03:58.351Z,6.10
2023-05-14T05:06:26.711Z,5.60
2023-05-14T05:08:55.537Z,5.50
2023-05-14T05:11:23.628Z,5.60
2023-05-14T05:13:54.426Z,5.90
2023-05-14T05:16:22.932Z,4.80
2023-05-14T05:18:51.789Z,4.40
2023-05-14T05:21:19.994Z,4.70
2023-05-14T05:23:48.478Z,5.00
2023-05-14T05:26:16.979Z,5.80
2023-05-14T05:28:45.268Z,4.90
2023-05-14T05:31:13.513Z,5.10
2023-05-14T05:33:41.762Z,4.60
2023-05-14T05:36:10.354Z,4.80
2023-05-14T05:38:40.491Z,5.20
2023-05-14T05:41:09.011Z,4.80
2023-05-14T05:43:37.269Z,4.70
2023-05-14T05:46:05.992Z,4.50
2023-05-14T05:48:35.441Z,4.60
2023-05-14T05:51:03.625Z,7.70
2023-05-14T05:53:31.900Z,6.10
2023-05-14T05:56:00.992Z,4.70
2023-05-14T05:58:29.496Z,4.40
2023-05-14T06:00:58.408Z,5.00
2023-05-14T06:03:27.253Z,4.20
2023-05-14T06:05:55.514Z,4.00
2023-05-14T06:08:23.890Z,3.70
2023-05-14T06:10:52.897Z,4.10
2023-05-14T06:13:21.132Z,4.50
2023-05-14T06:15:49.435Z,4.20
2023-05-14T06:18:17.972Z,3.80
2023-05-14T06:20:46.282Z,4.10
2023-05-14T06:23:14.688Z,3.40
2023-05-14T06:25:42.974Z,4.00
2023-05-14T06:28:11.286Z,4.90
2023-05-14T06:30:39.369Z,4.00
2023-05-14T06:33:07.552Z,5.00
2023-05-14T06:35:35.731Z,3.40
2023-05-14T06:38:04.200Z,3.20
2023-05-14T06:40:32.348Z,3.70
2023-05-14T06:43:00.824Z,4.20
2023-05-14T06:45:32.426Z,3.20
2023-05-14T06:48:01.848Z,5.00
2023-05-14T06:50:30.248Z,4.40
2023-05-14T06:52:58.619Z,11.70
2023-05-14T06:55:28.007Z,5.40
2023-05-14T06:57:56.366Z,9.50
2023-05-14T07:00:25.004Z,3.30
2023-05-14T07:02:53.981Z,3.20
2023-05-14T07:05:22.434Z,4.50
2023-05-14T07:07:52.036Z,3.40
2023-05-14T07:10:20.924Z,3.80
2023-05-14T07:12:50.703Z,3.10
2023-05-14T07:15:18.897Z,2.90
2023-05-14T07:17:47.697Z,2.70
2023-05-14T07:20:15.922Z,2.90
2023-05-14T07:22:44.060Z,3.00
2023-05-14T07:25:13.009Z,4.30
2023-05-14T07:27:42.018Z,3.80
2023-05-14T07:30:10.588Z,2.70
2023-05-14T07:32:38.815Z,3.40
2023-05-14T07:35:07.429Z,4.20
2023-05-14T07:37:35.951Z,2.60
2023-05-14T07:40:04.428Z,2.90
2023-05-14T07:42:36.675Z,3.70
2023-05-14T07:45:06.995Z,3.40
2023-05-14T07:47:35.413Z,3.10
2023-05-14T07:50:05.163Z,3.30
2023-05-14T07:52:33.299Z,2.90
2023-05-14T07:55:03.357Z,3.40
2023-05-14T07:57:31.733Z,3.50
2023-05-14T08:00:00.204Z,2.90
2023-05-14T08:02:29.012Z,2.90
2023-05-14T08:04:57.541Z,3.00
2023-05-14T08:07:27.895Z,3.80
2023-05-14T08:09:56.331Z,3.20
2023-05-14T08:12:24.558Z,4.30
2023-05-14T08:14:53.470Z,3.40
2023-05-14T08:17:21.938Z,3.30
2023-05-14T08:19:50.573Z,3.30
2023-05-14T08:22:18.757Z,3.80
2023-05-14T08:24:47.111Z,3.60
2023-05-14T08:27:17.321Z,5.00
2023-05-14T08:29:45.458Z,3.70
2023-05-14T08:32:22.849Z,4.20
2023-05-14T08:34:52.089Z,5.00
2023-05-14T08:37:20.467Z,3.70
2023-05-14T08:39:49.170Z,3.00
2023-05-14T08:42:22.021Z,3.60
2023-05-14T08:44:57.494Z,2.80
2023-05-14T08:50:07.545Z,3.60
2023-05-14T08:52:36.395Z,3.10
2023-05-14T08:55:10.352Z,3.70
2023-05-14T08:57:40.336Z,3.60
2023-05-14T09:00:12.113Z,3.60
2023-05-14T09:02:41.900Z,3.50
2023-05-14T09:05:10.799Z,4.30
2023-05-14T09:07:39.414Z,3.90
2023-05-14T09:10:11.472Z,4.50
2023-05-14T09:12:41.833Z,4.90
2023-05-14T09:15:10.428Z,4.80
2023-05-14T09:17:38.695Z,4.00
2023-05-14T09:20:07.578Z,4.30
2023-05-14T09:22:36.150Z,4.30
2023-05-14T09:25:09.961Z,4.40
2023-05-14T09:27:39.177Z,4.10
2023-05-14T09:30:14.361Z,3.30
2023-05-14T09:32:44.574Z,3.30
2023-05-14T09:35:17.452Z,3.60
2023-05-14T09:37:51.876Z,3.90
2023-05-14T09:40:23.999Z,3.30
2023-05-14T09:42:52.805Z,3.60
2023-05-14T09:45:21.694Z,2.80
2023-05-14T09:47:50.021Z,3.70
2023-05-14T09:50:18.337Z,3.90
2023-05-14T09:52:46.583Z,3.90
2023-05-14T09:55:16.170Z,3.70
2023-05-14T09:57:45.497Z,3.50
2023-05-14T10:00:16.210Z,3.60
2023-05-14T10:02:47.250Z,3.40
2023-05-14T10:05:16.369Z,2.70
2023-05-14T10:07:49.138Z,3.30
2023-05-14T10:10:20.476Z,2.80
2023-05-14T10:12:55.615Z,3.20
2023-05-14T10:15:38.829Z,3.50
2023-05-14T10:18:14.302Z,3.20
2023-05-14T10:20:43.328Z,3.40
2023-05-14T10:23:12.087Z,3.50
2023-05-14T10:25:41.783Z,2.60
2023-05-14T10:28:10.436Z,3.30
2023-05-14T10:30:46.578Z,4.10
2023-05-14T10:33:16.841Z,4.00
2023-05-14T10:35:56.673Z,3.90
2023-05-14T10:38:38.457Z,3.50
2023-05-14T10:41:11.879Z,3.20
2023-05-14T10:43:42.383Z,2.50
2023-05-14T10:46:14.112Z,3.50
2023-05-14T10:48:43.956Z,2.90
2023-05-14T10:51:12.723Z,2.20
2023-05-14T10:53:43.121Z,2.40
2023-05-14T10:56:15.063Z,2.50
2023-05-14T10:58:44.780Z,2.50
2023-05-14T11:01:14.269Z,2.20
2023-05-14T11:03:46.697Z,2.30
2023-05-14T11:06:16.487Z,2.90
2023-05-14T11:08:46.702Z,2.50
2023-05-14T11:11:15.753Z,2.80
2023-05-14T11:13:45.328Z,2.40
2023-05-14T11:16:23.375Z,2.70
2023-05-14T11:19:06.679Z,2.40
2023-05-14T11:21:35.345Z,2.80
2023-05-14T11:24:05.632Z,2.40
2023-05-14T11:26:34.694Z,2.20
2023-05-14T11:29:05.684Z,2.90
2023-05-14T11:31:34.077Z,3.00
2023-05-14T11:34:04.451Z,3.40
2023-05-14T11:36:33.100Z,2.70
2023-05-14T11:39:02.558Z,2.20
2023-05-14T11:41:31.543Z,2.40
2023-05-14T11:44:00.309Z,2.50
2023-05-14T11:46:30.267Z,2.70
2023-05-14T11:48:58.649Z,2.70
2023-05-14T11:51:27.460Z,3.00
2023-05-14T11:53:55.791Z,2.70
2023-05-14T11:56:24.130Z,2.40
2023-05-14T11:58:58.612Z,2.10
2023-05-14T12:01:28.597Z,2.40
2023-05-14T12:03:57.615Z,2.70
2023-05-14T12:06:31.445Z,2.20
2023-05-14T12:09:02.103Z,2.40
2023-05-14T12:11:32.312Z,3.20
2023-05-14T12:14:01.779Z,3.70
2023-05-14T12:16:34.835Z,3.10
2023-05-14T12:19:04.468Z,3.10
2023-05-14T12:21:34.702Z,2.70
2023-05-14T12:24:03.192Z,3.30
2023-05-14T12:26:34.922Z,3.40
2023-05-14T12:29:04.491Z,3.00
2023-05-14T12:31:34.795Z,3.00
2023-05-14T12:34:05.768Z,2.50
2023-05-14T12:36:34.195Z,2.90
2023-05-14T12:39:04.161Z,3.30
2023-05-14T12:41:33.638Z,2.50
2023-05-14T12:44:04.752Z,2.80
2023-05-14T12:46:34.977Z,3.50
2023-05-14T12:49:04.013Z,2.50
2023-05-14T12:51:32.234Z,2.70
2023-05-14T12:54:00.410Z,2.20
2023-05-14T12:56:31.796Z,2.70
2023-05-14T12:59:01.049Z,2.70
2023-05-14T13:01:29.277Z,2.50
2023-05-14T13:03:58.853Z,1.80
2023-05-14T13:06:27.137Z,2.40
2023-05-14T13:08:56.923Z,3.20
2023-05-14T13:11:25.121Z,2.40
2023-05-14T13:13:53.333Z,2.30
2023-05-14T13:16:21.728Z,2.40
2023-05-14T13:18:50.824Z,2.10
2023-05-14T13:21:19.130Z,2.40
2023-05-14T13:23:48.942Z,2.10
2023-05-14T13:26:17.079Z,2.90
2023-05-14T13:28:45.618Z,2.70
2023-05-14T13:31:16.889Z,2.70
2023-05-14T13:33:45.390Z,2.60
2023-05-14T13:36:16.884Z,2.60
2023-05-14T13:38:46.315Z,2.30
2023-05-14T13:41:14.476Z,2.80
2023-05-14T13:43:42.684Z,2.90
2023-05-14T13:46:10.771Z,2.80
2023-05-14T13:48:39.152Z,3.00
2023-05-14T13:51:10.423Z,3.60
2023-05-14T13:53:38.846Z,3.70
2023-05-14T13:56:11.061Z,3.10
2023-05-14T13:58:39.982Z,2.70
2023-05-14T14:01:08.255Z,3.20
2023-05-14T14:03:36.610Z,3.00
2023-05-14T14:06:04.885Z,4.70
2023-05-14T14:08:33.146Z,2.50
2023-05-14T14:11:01.556Z,4.30
2023-05-14T14:13:29.911Z,3.00
2023-05-14T14:15:58.407Z,3.00
2023-05-14T14:18:27.551Z,3.60
2023-05-14T14:20:56.648Z,3.10
2023-05-14T14:23:26.046Z,5.40
2023-05-14T14:25:56.280Z,3.50
2023-05-14T14:28:24.470Z,2.60
2023-05-14T14:30:52.771Z,2.90
2023-05-14T14:33:21.369Z,3.00
2023-05-14T14:35:49.602Z,3.00
2023-05-14T14:38:17.803Z,2.30
2023-05-14T14:40:46.630Z,3.10
2023-05-14T14:43:14.826Z,3.10
2023-05-14T14:45:48.234Z,3.20
2023-05-14T14:48:23.268Z,2.80
2023-05-14T14:50:52.448Z,3.70
2023-05-14T14:53:22.095Z,3.00
2023-05-14T14:55:51.560Z,3.00
2023-05-14T14:58:21.303Z,3.60
2023-05-14T15:00:55.236Z,3.50
2023-05-14T15:03:27.259Z,2.90
2023-05-14T15:05:58.256Z,2.80
2023-05-14T15:08:28.836Z,3.10
2023-05-14T15:10:59.461Z,2.80
2023-05-14T15:13:28.524Z,3.20
2023-05-14T15:15:56.955Z,3.60
2023-05-14T15:18:28.295Z,2.40
2023-05-14T15:20:56.927Z,3.10
2023-05-14T15:23:25.073Z,3.30
2023-05-14T15:25:54.073Z,3.00
2023-05-14T15:28:22.332Z,3.50
2023-05-14T15:30:50.551Z,3.10
2023-05-14T15:33:19.785Z,2.60
2023-05-14T15:35:49.009Z,3.70
2023-05-14T15:38:20.159Z,3.10
2023-05-14T15:40:51.155Z,3.00
2023-05-14T15:43:20.972Z,3.40
2023-05-14T15:45:49.396Z,3.10
2023-05-14T15:48:17.723Z,3.20
2023-05-14T15:50:49.785Z,2.70
2023-05-14T15:53:19.301Z,3.10
2023-05-14T15:55:50.583Z,3.40
2023-05-14T15:58:19.559Z,3.50
2023-05-14T16:00:47.946Z,3.80
2023-05-14T16:03:17.596Z,3.20
2023-05-14T16:05:48.723Z,2.80
2023-05-14T16:08:18.375Z,3.10
2023-05-14T16:10:46.607Z,3.10
2023-05-14T16:13:14.789Z,3.20
2023-05-14T16:15:43.110Z,3.40
2023-05-14T16:18:11.383Z,3.00
2023-05-14T16:20:39.573Z,2.60
2023-05-14T16:23:07.839Z,3.30
2023-05-14T16:25:35.958Z,2.60
2023-05-14T16:28:04.661Z,3.60
2023-05-14T16:30:33.052Z,3.50
2023-05-14T16:33:01.388Z,2.80
2023-05-14T16:35:29.703Z,3.60
2023-05-14T16:37:58.219Z,3.30
2023-05-14T16:40:26.480Z,2.60
2023-05-14T16:42:54.668Z,2.80
2023-05-14T16:45:23.171Z,3.90
2023-05-14T16:47:51.658Z,3.10
2023-05-14T16:50:21.368Z,4.60
2023-05-14T16:52:49.623Z,3.20
2023-05-14T16:55:20.542Z,3.10
2023-05-14T16:57:48.933Z,3.40
2023-05-14T17:00:18.086Z,4.40
2023-05-14T17:02:50.075Z,3.30
2023-05-14T17:05:18.472Z,4.10
2023-05-14T17:07:46.695Z,3.90
2023-05-14T17:10:15.022Z,3.90
2023-05-14T17:12:43.470Z,3.90
2023-05-14T17:15:11.154Z,3.90
2023-05-14T17:17:39.301Z,4.20
2023-05-14T17:20:08.789Z,3.30
2023-05-14T17:22:37.197Z,4.00
2023-05-14T17:25:05.797Z,4.20
2023-05-14T17:27:34.266Z,4.70
2023-05-14T17:30:04.069Z,3.00
2023-05-14T17:32:32.612Z,3.70
2023-05-14T17:35:12.678Z,3.90
2023-05-14T17:37:43.630Z,3.60
2023-05-14T17:40:24.209Z,3.50
2023-05-14T17:42:54.689Z,3.60
2023-05-14T17:48:09.273Z,4.20
2023-05-14T17:50:39.459Z,3.80
2023-05-14T17:53:10.537Z,4.00
2023-05-14T17:55:44.178Z,4.30
2023-05-14T17:58:15.640Z,4.90
2023-05-14T18:00:58.981Z,5.70
2023-05-14T18:03:28.051Z,5.00
2023-05-14T18:06:02.708Z,4.40
2023-05-14T18:08:34.182Z,4.50
2023-05-14T18:11:04.334Z,4.50
2023-05-14T18:13:33.042Z,4.20
2023-05-14T18:16:01.465Z,4.30
2023-05-14T18:18:29.884Z,5.00
2023-05-14T18:20:58.593Z,4.60
2023-05-14T18:23:26.869Z,4.60
2023-05-14T18:25:57.831Z,5.30
2023-05-14T18:28:27.666Z,4.50
2023-05-14T18:30:55.985Z,5.20
2023-05-14T18:33:24.715Z,4.70
2023-05-14T18:35:53.905Z,4.40
2023-05-14T18:38:22.279Z,5.10
2023-05-14T18:40:50.618Z,5.20
2023-05-14T18:43:19.863Z,6.20
2023-05-14T18:45:48.547Z,5.90
2023-05-14T18:48:19.195Z,5.60
2023-05-14T18:50:47.387Z,7.10
2023-05-14T18:53:16.410Z,7.90
2023-05-14T18:55:44.804Z,6.50
2023-05-14T18:58:15.001Z,6.60
2023-05-14T19:00:43.396Z,5.10
2023-05-14T19:03:11.718Z,5.60
2023-05-14T19:05:40.139Z,5.30
2023-05-14T19:08:08.507Z,6.30
2023-05-14T19:10:36.880Z,5.30
2023-05-14T19:13:07.527Z,5.40
2023-05-14T19:15:35.845Z,5.60
2023-05-14T19:18:05.053Z,6.50
2023-05-14T19:20:33.582Z,6.00
2023-05-14T19:23:01.758Z,5.80
2023-05-14T19:25:30.043Z,6.00
2023-05-14T19:28:01.621Z,6.00
2023-05-14T19:30:29.800Z,5.40
2023-05-14T19:32:57.966Z,5.10
2023-05-14T19:35:26.847Z,4.90
2023-05-14T19:37:55.648Z,5.80
2023-05-14T19:40:24.164Z,3.90
2023-05-14T19:42:52.539Z,4.90
2023-05-14T19:45:21.437Z,6.20
2023-05-14T19:47:50.270Z,4.10
2023-05-14T19:50:18.561Z,4.40
2023-05-14T19:52:46.715Z,4.10
2023-05-14T19:55:14.964Z,3.90
2023-05-14T19:57:43.193Z,3.70
2023-05-14T20:00:12.096Z,4.50
2023-05-14T20:02:43.344Z,4.60
2023-05-14T20:05:12.321Z,4.10
2023-05-14T20:07:40.694Z,4.20
2023-05-14T20:10:09.832Z,4.20
2023-05-14T20:12:39.510Z,4.80
2023-05-14T20:15:08.173Z,5.30
2023-05-14T20:17:38.546Z,6.00
2023-05-14T20:20:08.392Z,4.80
2023-05-14T20:22:38.544Z,4.50
2023-05-14T20:25:08.388Z,4.30
2023-05-14T20:27:36.620Z,5.30
2023-05-14T20:30:05.920Z,5.60
2023-05-14T20:32:34.650Z,4.90
2023-05-14T20:35:03.754Z,5.40
2023-05-14T20:37:33.639Z,5.60
2023-05-14T20:40:04.307Z,7.70
2023-05-14T20:42:32.554Z,5.50
2023-05-14T20:45:00.802Z,5.40
2023-05-14T20:47:31.505Z,5.20
2023-05-14T20:50:01.287Z,5.50
2023-05-14T20:52:29.486Z,5.00
2023-05-14T20:54:59.423Z,4.80
2023-05-14T20:57:29.768Z,5.20
2023-05-14T20:59:58.053Z,5.20
2023-05-14T21:02:26.449Z,5.30
2023-05-14T21:04:54.865Z,5.30
2023-05-14T21:07:23.368Z,5.30
2023-05-14T21:09:52.741Z,5.40
2023-05-14T21:12:28.177Z,5.00
2023-05-14T21:14:56.351Z,5.40
2023-05-14T21:17:24.726Z,4.80
2023-05-14T21:19:52.949Z,4.70
2023-05-14T21:22:23.425Z,5.80
2023-05-14T21:24:51.592Z,5.00
2023-05-14T21:27:19.864Z,4.90
2023-05-14T21:29:48.064Z,4.90
2023-05-14T21:32:16.177Z,4.70
2023-05-14T21:34:44.342Z,4.80
2023-05-14T21:37:12.601Z,4.50
2023-05-14T21:39:41.064Z,5.40
2023-05-14T21:42:09.697Z,4.40
2023-05-14T21:44:38.009Z,5.20
2023-05-14T21:47:06.904Z,4.90
2023-05-14T21:49:35.778Z,5.10
2023-05-14T21:52:05.266Z,4.50
2023-05-14T21:54:33.686Z,4.20
2023-05-14T21:57:01.819Z,5.10
2023-05-14T21:59:29.980Z,4.20
2023-05-14T22:02:07.036Z,4.20
2023-05-14T22:04:36.410Z,4.30
2023-05-14T22:07:06.302Z,7.00
2023-05-14T22:09:34.491Z,4.80
2023-05-14T22:12:05.132Z,5.10
2023-05-14T22:14:33.307Z,4.80
2023-05-14T22:17:01.498Z,5.40
2023-05-14T22:19:30.091Z,4.90
2023-05-14T22:21:59.013Z,5.10
2023-05-14T22:24:27.226Z,5.50
2023-05-14T22:26:55.457Z,5.80
2023-05-14T22:29:23.608Z,5.70
2023-05-14T22:31:51.801Z,6.10
2023-05-14T22:34:20.018Z,6.40
2023-05-14T22:36:48.305Z,6.20
2023-05-14T22:39:16.974Z,6.20
2023-05-14T22:41:45.887Z,6.50
2023-05-14T22:44:14.483Z,6.50
2023-05-14T22:46:42.856Z,6.30
2023-05-14T22:49:11.007Z,7.20
2023-05-14T22:51:39.168Z,7.10
2023-05-14T22:54:07.320Z,7.10
2023-05-14T22:56:35.862Z,6.50
2023-05-14T22:59:04.485Z,5.60
2023-05-14T23:01:32.690Z,5.80
2023-05-14T23:04:00.867Z,6.30
2023-05-14T23:06:30.501Z,6.00
2023-05-14T23:08:58.855Z,6.20
2023-05-14T23:11:27.358Z,6.10
2023-05-14T23:13:55.899Z,6.80
2023-05-14T23:16:24.533Z,6.00
2023-05-14T23:18:53.021Z,5.70
2023-05-14T23:21:21.337Z,6.80
2023-05-14T23:23:49.571Z,5.70
2023-05-14T23:26:17.790Z,5.00
2023-05-14T23:28:47.535Z,5.80
2023-05-14T23:31:15.808Z,5.20
2023-05-14T23:33:44.873Z,5.90
2023-05-14T23:36:13.334Z,6.20
2023-05-14T23:38:41.825Z,7.00
2023-05-14T23:41:10.021Z,6.40
2023-05-14T23:43:38.121Z,7.10
2023-05-14T23:46:08.946Z,6.50
2023-05-14T23:48:37.226Z,6.50
2023-05-14T23:51:05.343Z,6.80
2023-05-14T23:53:33.476Z,6.20
2023-05-14T23:56:01.979Z,5.80
2023-05-14T23:58:30.520Z,6.20
